Airfield :
LOGIN :

Register | Disclaimer

   EN    FR    IT 

 










Legend :    VFR   Marginal VFR   IFR   Intensive IFR   Very Intensive IFR
Visi :
Ceiling :
>= 8 km
>= 3000ft
5 to 8 km
1000 to 3000 ft
1500m to 5 km
500 to 1000 ft
800 to 1500m
200 to 500 ft
< 800m
< 200 ft
Symbols :   Thunderstorms  Fog  Heavy snow  Heavy precipitations  Wind > 20 kt
SIGMETs :     Misc.  Thunderstorms  Icing  Turbulence  Mountain Waves  Volcanic Ashes







- Airport Elevation : 3 ft
- IATA code : LWR


EHLW - Leuuwarden Air Base

CURRENT METAR :
  • 190655Z AUTO 13005KT 2200 R05/2200U BR OVC270 12/12 Q1010 YLO 14005KT 2000 BR BKN002 BKN280 BECMG 4000 BR SCT004 BKN280

EXPIRED METARs :
  • 190642Z AUTO 14004KT 2100 R05/2100D BR FEW001 OVC280 12/12 Q1010 YLO 14005KT 2000 BR BKN002 BKN280 BECMG 4000 BR SCT004 BKN280
  • 190625Z AUTO 13005KT 2300 R05/2300N BR BKN001 OVC270 12/12 Q1010 RED 14005KT 2000 BR BKN002 BKN280 BECMG 4000 BR SCT004 BKN280
  • 190618Z AUTO 13004KT 080V140 2400 R05/2400U BR SCT001 OVC270 12/12 Q1010 RED 14005KT 2000 BR BKN002 BKN280 BECMG 4000 BR SCT004 BKN280
  • 190602Z AUTO 13004KT 080V150 2100 R05/2100N BR OVC290 12/12 Q1010 YLO 14005KT TEMPO BR OVC290 BECMG 4000 BR
  • 190555Z AUTO 13004KT 070V140 2200 R05/1900U BR OVC240 12/12 Q1010 YLO
  • 190525Z AUTO 12005KT 060V150 2600 R05/2300N BR BKN110 OVC260 12/12 Q1010 YLO
  • 190455Z AUTO 15005KT 2500 R05/2200N BR FEW058 OVC110 12/12 Q1011 YLO
  • 190425Z AUTO 16004KT 120V190 2700 R05/2400N BR FEW053 OVC058 12/12 Q1011 YLO

TAF TAF EHLW
Valid from the 19 at 05:00 until the 19 at 17:00 UTC


190429Z 1905/1917 15005KT 2000 BR NSC
PROB30
TEMPO 1905/1909 FEW003 SCT006
BECMG 1909/1911 CAVOK
No reported NOTAMs for that airfield.



MET'MAP, your aeronautical weather chart ! - Copyright ORBIFLY December 2007 - Disclaimer

ORBIFLY MET'MAP TEAM :

Programming & Development : Alexandra Zaïnal
Concept & Development : Baudouin d'Aumeries
Co-Development & Prog : Marc-Olivier Méhu
Technical & hardware support : Manuel Goepfert

Contact : metmap@orbifly.com




SOURCES & CREDITS :

   NOAA